VIP Ground Handling & Aviation Services

 

 
Airport

HERAKLION (HER)

Ground Handling Services – HER/LGIR

VIP Ground Handling

State Ground Handling

Military Ground Handling

Slot & PPR Coordination

Fuel Arrangements

Crew Accommodation Arrangements

Crew Transportation

Customs & Immigration Assistance

Executive Terminal Services

Crew Lounge

Flight Planning, Weather Briefing and NOTAMs

Catering Arrangements

Security Services

Aircraft Maintenance

Airport Customs & Immigration

Concierge Services

VIP Meet & Greet

Helicopter Transfers

Chauffeur Services

Aircraft Charter

Yacht Charter

Hire & Rental

Entertainment & Hospitality

Health & Beauty

Delivery Services

Conference & Meeting rooms

Heraklion Airport N. Kazantzakis, Heraklion 716 01

+30 210 35 33 331 (24/7)

+30 694 6200 300 (24/7)

greece@alphajetservices.com

Heraklion Airport
Airport Type
• Civil
Operating Hours
•24H
Fuel Available
•JET A1 / AVGAS
Fire Category
•8
Approaches
•VOR / DME NDB
Available data for LGIR from the past 2 hours
IRAKLION (CIV/AF
Metar
LGIR 260950Z 31010KT CAVOK 29/22 Q1012 NOSIG

09:50 UTC

Wind: 310° 10kt

Visibility:

Sky:

Temp: 29 deg C / 84.2 deg F

Dewpoint: 22 deg C / 71.6 deg F

Pressure: 1012 hPa

TAF
TAF LGIR 260500Z 2606/2706 31016KT 9999 FEW025